Great Bend, Kansas
Current Conditions -  °F | °C
As of 2:55 PM on Tuesday 21 Oct 2014 (Local Time) from KGBD Reporting Station
Few Clouds Few Clouds  
Wind Chill: 79°   Ceiling: Unl
Heat Index: 80°   Visibility: 10mi
Dew Point: 61°   Wind: 10mph
Humidity: 54%   Direction: 160°SSE
Pressure: 30"   Gusts: NA
Location:  38.37°N, 98.76°W
Report Text: KGBD 211955Z AUTO 16009KT 10SM FEW070 26/16 A3000 RMK AO1
Loading
Personal Weather Stations






























Interactive Weather Map
Tropical Storm Tracking
New forecast layout! Learn more

10-Day Weather Forecast

Advertisements
Track Severe Weather on mobile